Time;durP1;ratioP1;P1;durP2;ratioP2;P2;SDS_P1;SDS_P2;PMS_P1;PMS_P2;Temp;Humidity;BMP_temperature;BMP_pressure;BME280_temperature;BME280_humidity;BME280_pressure;Samples;Min_cycle;Max_cycle;Signal;HPM_P1;HPM_P2
2021/06/03 00:00:51;;;;;;;;;24.33;24.00;;;;;26.13;47.36;101158.56;5061419;28;45457;-63
2021/06/03 00:03:18;;;;;;;;;23.67;21.33;;;;;26.13;47.70;101160.38;5061426;28;45267;-62
2021/06/03 00:05:48;;;;;;;;;28.00;25.25;;;;;26.13;47.75;101161.22;5061062;28;45550;-63
2021/06/03 00:08:16;;;;;;;;;22.67;22.00;;;;;26.13;47.01;101157.72;5061800;28;45235;-64
2021/06/03 00:10:44;;;;;;;;;22.75;22.00;;;;;26.12;47.34;101159.50;5060930;28;45212;-64
2021/06/03 00:13:10;;;;;;;;;25.25;23.75;;;;;26.13;47.61;101157.72;5063388;28;45445;-64
2021/06/03 00:15:37;;;;;;;;;24.50;24.00;;;;;26.12;47.21;101153.34;5064734;28;45409;-64
2021/06/03 00:18:04;;;;;;;;;23.50;22.00;;;;;26.12;47.50;101154.19;5065095;28;45160;-64
2021/06/03 00:20:32;;;;;;;;;21.67;19.33;;;;;26.13;47.42;101160.38;5083017;28;47236;-64
2021/06/03 00:22:57;;;;;;;;;24.33;21.33;;;;;26.12;47.41;101161.31;5071536;28;45408;-64
2021/06/03 00:25:23;;;;;;;;;23.50;23.00;;;;;26.12;47.59;101163.97;5064690;28;45405;-64
2021/06/03 00:27:49;;;;;;;;;19.33;19.33;;;;;26.11;47.24;101162.25;5064442;28;45523;-64
2021/06/03 00:30:15;;;;;;;;;22.33;21.00;;;;;26.11;47.23;101160.44;5064543;28;46320;-64
2021/06/03 00:32:41;;;;;;;;;22.33;20.00;;;;;26.11;47.29;101163.09;5076756;28;45347;-63
2021/06/03 00:35:07;;;;;;;;;21.25;20.75;;;;;26.12;47.24;101169.28;5063977;28;54506;-63
2021/06/03 00:37:32;;;;;;;;;24.00;22.00;;;;;26.11;47.54;101172.91;5063368;28;45230;-63
2021/06/03 00:39:58;;;;;;;;;21.33;20.33;;;;;26.11;47.71;101171.09;5063518;28;67125;-64
2021/06/03 00:42:24;;;;;;;;;27.00;23.33;;;;;26.10;47.20;101171.16;5064309;28;45198;-64
2021/06/03 00:44:50;;;;;;;;;21.67;20.67;;;;;26.10;47.70;101179.13;5064642;28;45270;-64
2021/06/03 00:47:16;;;;;;;;;23.33;23.33;;;;;26.09;47.36;101177.41;5064655;28;45220;-64
2021/06/03 00:49:41;;;;;;;;;21.00;21.00;;;;;26.08;47.20;101176.59;5064158;28;46182;-65
2021/06/03 00:52:06;;;;;;;;;23.33;20.33;;;;;26.09;47.20;101188.06;5075485;28;61234;-64
2021/06/03 00:54:32;;;;;;;;;25.67;24.00;;;;;26.08;47.15;101189.88;5064618;27;45410;-64
2021/06/03 00:56:57;;;;;;;;;21.67;20.67;;;;;26.08;47.33;101195.19;5064251;28;45456;-61
2021/06/03 00:59:22;;;;;;;;;24.00;23.00;;;;;26.07;47.09;101185.50;5063180;28;64663;-63
2021/06/03 01:01:48;;;;;;;;;20.67;20.67;;;;;26.09;47.13;101185.41;5063567;28;58149;-63
2021/06/03 01:04:17;;;;;;;;;26.67;25.00;;;;;26.08;47.00;101189.00;5063788;28;48958;-63
2021/06/03 01:06:43;;;;;;;;;21.33;21.33;;;;;26.08;47.44;101189.00;5064286;28;45271;-63
2021/06/03 01:09:28;;;;;;;;;18.00;16.00;;;;;26.09;47.30;101193.38;5063741;28;46195;-63
2021/06/03 01:11:59;;;;;;;;;23.00;20.00;;;;;26.07;47.25;101193.47;5063685;28;45243;-62
2021/06/03 01:14:26;;;;;;;;;22.00;22.00;;;;;26.07;47.14;101201.47;5062641;28;45432;-62
2021/06/03 01:16:54;;;;;;;;;22.67;19.33;;;;;26.08;47.20;101199.66;5063989;28;45313;-63
2021/06/03 01:19:25;;;;;;;;;21.00;20.67;;;;;26.07;47.23;101200.59;5063540;28;46289;-62
2021/06/03 01:22:08;;;;;;;;;18.67;18.67;;;;;26.07;47.08;101200.59;5063481;28;45437;-64
2021/06/03 01:24:38;;;;;;;;;20.00;19.00;;;;;26.05;46.93;101206.00;5075445;28;45375;-63
2021/06/03 01:27:10;;;;;;;;;20.67;20.00;;;;;26.05;47.22;101206.00;5076809;27;45153;-63
2021/06/03 01:30:08;;;;;;;;;22.00;18.67;;;;;26.04;47.30;101212.28;5061749;28;47387;-63
2021/06/03 01:32:40;;;;;;;;;22.67;22.33;;;;;26.05;47.28;101205.13;5074805;28;45230;-64
2021/06/03 01:35:13;;;;;;;;;22.33;19.33;;;;;26.03;47.45;101214.06;5063803;27;45330;-63
2021/06/03 01:37:39;;;;;;;;;22.67;20.67;;;;;26.03;47.00;101211.41;5063649;28;45531;-61
2021/06/03 01:40:06;;;;;;;;;22.67;20.67;;;;;26.04;47.11;101222.91;5070044;28;45488;-61
2021/06/03 01:42:32;;;;;;;;;20.67;20.67;;;;;26.02;47.11;101215.00;5067391;28;45433;-61
2021/06/03 01:44:58;;;;;;;;;20.00;18.00;;;;;26.02;47.13;101215.00;5045453;28;45370;-62
2021/06/03 01:47:23;;;;;;;;;18.33;18.33;;;;;26.02;47.52;101211.50;5063397;28;45523;-63
2021/06/03 01:49:48;;;;;;;;;21.67;20.00;;;;;26.01;47.42;101217.78;5063340;28;45335;-62
2021/06/03 01:52:14;;;;;;;;;20.33;20.33;;;;;26.00;47.43;101214.28;5060936;28;67788;-62
2021/06/03 01:54:41;;;;;;;;;20.67;18.33;;;;;26.00;47.29;101216.06;5045572;28;45330;-62
2021/06/03 01:57:07;;;;;;;;;18.67;18.00;;;;;25.99;47.32;101220.53;5063313;28;45500;-63
2021/06/03 01:59:34;;;;;;;;;21.33;18.67;;;;;26.00;47.27;101224.91;5062981;28;45393;-65
2021/06/03 02:01:59;;;;;;;;;23.67;22.00;;;;;26.00;47.24;101230.22;5075057;28;45322;-63
2021/06/03 02:04:25;;;;;;;;;22.67;22.33;;;;;25.99;47.22;101233.84;5062832;28;53493;-63
2021/06/03 02:06:52;;;;;;;;;19.67;19.00;;;;;25.99;47.47;101233.84;5063197;28;45393;-63
2021/06/03 02:09:17;;;;;;;;;21.00;19.33;;;;;25.99;47.13;101239.16;5063018;28;45425;-63
2021/06/03 02:11:46;;;;;;;;;23.00;21.33;;;;;25.99;47.32;101238.28;5061070;28;54461;-63
2021/06/03 02:14:16;;;;;;;;;20.00;18.00;;;;;25.98;47.37;101237.44;5063048;28;45293;-63
2021/06/03 02:16:50;;;;;;;;;19.67;19.67;;;;;25.99;47.07;101243.59;5062885;28;45389;-63
2021/06/03 02:19:56;;;;;;;;;18.67;18.67;;;;;25.98;47.16;101242.75;5061563;28;45461;-63
2021/06/03 02:22:23;;;;;;;;;18.33;18.33;;;;;25.98;47.41;101236.56;5063930;28;45404;-63
2021/06/03 02:24:50;;;;;;;;;23.33;21.33;;;;;25.97;47.43;101235.72;5083024;27;45234;-63
2021/06/03 02:27:16;;;;;;;;;22.67;20.00;;;;;25.98;47.22;101236.56;5082171;28;45187;-60
2021/06/03 02:29:42;;;;;;;;;20.00;19.33;;;;;25.97;47.26;101242.81;5080988;28;45384;-60
2021/06/03 02:32:09;;;;;;;;;22.33;21.33;;;;;25.97;47.20;101242.81;5081714;28;45460;-60
2021/06/03 02:34:34;;;;;;;;;22.00;19.67;;;;;25.96;47.61;101244.66;5080996;28;45357;-60
2021/06/03 02:36:59;;;;;;;;;21.00;19.00;;;;;25.96;47.29;101241.09;5073375;27;55584;-60
2021/06/03 02:39:25;;;;;;;;;21.00;21.00;;;;;25.96;47.25;101244.66;5074424;28;46245;-60
2021/06/03 02:41:50;;;;;;;;;19.33;18.00;;;;;25.96;47.59;101239.31;5062538;28;45259;-61
2021/06/03 02:44:16;;;;;;;;;20.33;18.67;;;;;25.94;47.49;101248.34;5074643;28;45373;-61
2021/06/03 02:46:41;;;;;;;;;21.00;18.67;;;;;25.95;47.49;101252.69;5062733;28;45546;-60
2021/06/03 02:49:07;;;;;;;;;20.67;20.67;;;;;25.94;47.29;101251.84;5060920;28;46106;-61
2021/06/03 02:54:54;;;;;;;;;19.00;19.00;;;;;25.94;47.29;101254.50;5072020;28;45301;-61
2021/06/03 02:57:21;;;;;;;;;20.67;20.33;;;;;25.94;46.90;101251.00;5081771;27;55913;-61
2021/06/03 02:59:46;;;;;;;;;19.67;18.33;;;;;25.93;47.44;101246.63;5082490;27;45413;-61
2021/06/03 03:02:12;;;;;;;;;19.67;17.67;;;;;25.93;47.27;101249.28;5081751;27;59627;-61
2021/06/03 03:04:37;;;;;;;;;20.00;18.67;;;;;25.92;47.29;101244.91;5082740;27;45241;-61
2021/06/03 03:07:03;;;;;;;;;19.33;18.33;;;;;25.92;47.33;101252.91;5081962;27;53291;-61
2021/06/03 03:09:28;;;;;;;;;21.00;19.33;;;;;25.93;47.05;101257.28;5082263;27;45889;-60
2021/06/03 03:11:53;;;;;;;;;16.33;16.33;;;;;25.91;47.31;101249.38;5081591;27;63252;-61
2021/06/03 03:14:19;;;;;;;;;19.00;18.00;;;;;25.92;47.13;101258.22;5081604;27;60812;-61
2021/06/03 03:16:44;;;;;;;;;23.00;20.33;;;;;25.92;47.31;101263.53;5082444;27;45218;-60
2021/06/03 03:19:09;;;;;;;;;22.67;19.00;;;;;25.91;47.18;101262.66;5081748;27;57628;-60
2021/06/03 03:21:35;;;;;;;;;17.33;16.33;;;;;25.91;47.64;101269.78;5081461;27;62096;-61
2021/06/03 03:27:22;;;;;;;;;20.33;18.67;;;;;25.91;46.96;101265.31;5061702;28;45321;-60
2021/06/03 03:29:51;;;;;;;;;19.33;17.67;;;;;25.91;47.12;101267.13;5061329;28;47058;-60
2021/06/03 03:32:17;;;;;;;;;17.67;17.00;;;;;25.91;47.26;101275.13;5062462;28;45152;-61
2021/06/03 03:34:43;;;;;;;;;17.33;17.33;;;;;25.91;47.31;101277.78;5044243;28;45530;-61
2021/06/03 03:37:09;;;;;;;;;19.33;18.00;;;;;25.91;47.35;101281.28;5062531;28;45310;-61
2021/06/03 03:39:34;;;;;;;;;17.33;17.33;;;;;25.91;47.31;101275.13;5061516;28;45296;-61
2021/06/03 03:41:59;;;;;;;;;18.00;18.00;;;;;25.91;47.26;101294.56;5060970;28;62985;-61
2021/06/03 03:44:25;;;;;;;;;17.33;17.33;;;;;25.91;47.19;101294.56;5073292;28;53934;-61
2021/06/03 03:46:50;;;;;;;;;21.00;17.33;;;;;25.92;47.47;101292.78;5060668;28;45405;-60
2021/06/03 03:49:16;;;;;;;;;19.00;16.67;;;;;25.90;47.17;101303.47;5077323;28;47417;-60
2021/06/03 03:51:41;;;;;;;;;17.00;15.33;;;;;25.90;46.96;101302.63;5065190;28;46495;-60
2021/06/03 03:54:07;;;;;;;;;15.00;14.33;;;;;25.89;47.29;101307.09;5065054;28;45404;-61
2021/06/03 03:56:32;;;;;;;;;17.67;17.33;;;;;25.89;47.21;101312.41;5065454;28;45168;-60
2021/06/03 03:58:58;;;;;;;;;17.00;17.00;;;;;25.89;47.47;101306.25;5064249;28;58628;-60
2021/06/03 04:01:27;;;;;;;;;18.33;17.00;;;;;25.89;47.14;101311.56;5065075;28;45318;-59
2021/06/03 04:03:53;;;;;;;;;18.33;18.33;;;;;25.88;47.13;101308.03;5065010;28;45464;-59
2021/06/03 04:06:18;;;;;;;;;20.67;17.33;;;;;25.87;47.22;101317.81;5063036;28;55093;-60
2021/06/03 04:08:43;;;;;;;;;20.67;20.67;;;;;25.88;47.33;101316.00;5064176;28;64662;-60
2021/06/03 04:11:09;;;;;;;;;18.00;17.67;;;;;25.86;47.17;101318.75;5063488;28;45320;-60
2021/06/03 04:13:35;;;;;;;;;18.67;18.00;;;;;25.88;47.22;101323.97;5064626;28;45242;-60
2021/06/03 04:16:01;;;;;;;;;18.33;16.67;;;;;25.87;47.44;101322.25;5065349;28;45372;-62
2021/06/03 04:18:26;;;;;;;;;19.33;16.00;;;;;25.87;47.19;101335.56;5064467;28;47350;-63
2021/06/03 04:20:51;;;;;;;;;17.33;17.33;;;;;25.85;47.43;101330.34;5064827;28;45305;-62
2021/06/03 04:23:17;;;;;;;;;25.67;22.33;;;;;25.86;47.27;101328.56;5063416;28;45388;-63
2021/06/03 04:25:42;;;;;;;;;22.00;19.33;;;;;25.86;47.22;101339.19;5064811;28;45626;-62
2021/06/03 04:28:08;;;;;;;;;18.67;18.33;;;;;25.85;47.31;101332.16;5063015;28;46256;-62
2021/06/03 04:30:34;;;;;;;;;17.67;17.67;;;;;25.85;47.47;101338.31;5063477;28;45357;-62
2021/06/03 04:33:00;;;;;;;;;17.33;17.00;;;;;25.84;47.03;101333.94;5064600;28;45338;-63
2021/06/03 04:35:26;;;;;;;;;21.33;19.00;;;;;25.85;47.25;101335.66;5064726;28;45217;-60
2021/06/03 04:37:52;;;;;;;;;19.33;18.00;;;;;25.85;47.28;101335.66;5078457;28;47140;-61
2021/06/03 04:40:20;;;;;;;;;22.00;20.67;;;;;25.85;47.49;101343.63;5084750;27;45268;-61
2021/06/03 04:42:46;;;;;;;;;20.00;17.33;;;;;25.85;47.25;101335.66;5084596;27;45360;-61
2021/06/03 04:45:14;;;;;;;;;19.67;19.00;;;;;25.85;47.20;101338.31;5084905;27;45543;-61
2021/06/03 04:47:43;;;;;;;;;18.33;17.00;;;;;25.86;47.27;101342.69;5049729;28;46647;-61
2021/06/03 04:50:09;;;;;;;;;17.67;17.67;;;;;25.86;47.39;101344.50;5084465;27;45429;-60
2021/06/03 04:52:35;;;;;;;;;17.00;17.00;;;;;25.86;47.22;101342.69;5084528;27;45239;-59
2021/06/03 04:55:13;;;;;;;;;19.33;17.00;;;;;25.86;47.20;101344.50;5073126;28;45420;-60
2021/06/03 04:57:39;;;;;;;;;20.33;18.33;;;;;25.85;47.09;101338.31;5061640;28;46226;-60
2021/06/03 05:00:08;;;;;;;;;19.00;18.33;;;;;25.86;47.27;101344.50;5076147;28;45262;-60
2021/06/03 05:02:33;;;;;;;;;21.33;17.00;;;;;25.85;46.70;101340.13;5063653;28;45377;-61
2021/06/03 05:04:59;;;;;;;;;18.67;17.33;;;;;25.85;47.20;101348.94;5076855;28;45299;-61
2021/06/03 05:07:24;;;;;;;;;16.67;15.67;;;;;25.85;47.00;101342.78;5084212;27;46222;-61
2021/06/03 05:09:49;;;;;;;;;18.33;18.33;;;;;25.85;46.99;101340.97;5084142;28;45329;-61
2021/06/03 05:12:15;;;;;;;;;19.67;16.33;;;;;25.85;47.22;101338.31;5084105;27;45412;-60
2021/06/03 05:14:41;;;;;;;;;18.00;18.00;;;;;25.85;47.10;101338.31;5084800;27;45338;-60
2021/06/03 05:17:06;;;;;;;;;19.00;18.67;;;;;25.85;47.06;101343.63;5083855;27;46214;-60
2021/06/03 05:19:34;;;;;;;;;16.67;16.67;;;;;25.85;47.14;101343.63;5084131;27;46503;-60
2021/06/03 05:22:06;;;;;;;;;18.33;18.00;;;;;25.84;47.22;101336.59;5063668;28;45434;-62
2021/06/03 05:24:32;;;;;;;;;16.67;16.33;;;;;25.85;47.34;101346.28;5047030;28;45529;-62
2021/06/03 05:26:58;;;;;;;;;16.67;15.33;;;;;25.85;47.11;101356.94;5083593;28;45333;-62
2021/06/03 05:29:24;;;;;;;;;16.33;16.33;;;;;25.86;47.02;101355.97;5083772;27;45224;-62
2021/06/03 05:31:52;;;;;;;;;19.33;19.33;;;;;25.85;47.16;101351.59;5083974;27;45523;-62
2021/06/03 05:34:17;;;;;;;;;19.00;18.00;;;;;25.85;47.23;101364.06;5084180;27;45435;-61
2021/06/03 05:36:43;;;;;;;;;19.33;14.67;;;;;25.84;47.05;101363.19;5077272;27;45612;-62
2021/06/03 05:39:09;;;;;;;;;19.67;17.00;;;;;25.85;47.23;101364.06;5075481;28;49269;-61
2021/06/03 05:41:37;;;;;;;;;15.67;15.67;;;;;25.84;47.09;101365.84;5076044;28;45428;-61
2021/06/03 05:44:04;;;;;;;;;17.33;15.33;;;;;25.85;47.00;101362.25;5077208;28;45370;-61
2021/06/03 05:46:29;;;;;;;;;19.00;16.67;;;;;25.85;47.06;101364.91;5083548;27;46208;-59
2021/06/03 05:48:55;;;;;;;;;17.33;17.33;;;;;25.85;46.66;101362.25;5083393;28;45145;-59
2021/06/03 05:51:20;;;;;;;;;15.33;14.00;;;;;25.85;46.87;101364.91;5083881;27;45606;-61
2021/06/03 05:53:45;;;;;;;;;15.33;15.33;;;;;25.85;47.22;101367.56;5083582;27;45289;-60
2021/06/03 05:56:11;;;;;;;;;17.00;16.00;;;;;25.85;47.36;101367.56;5074639;28;59640;-60
2021/06/03 05:58:36;;;;;;;;;18.00;16.67;;;;;25.85;47.08;101364.91;5076335;28;45239;-61
2021/06/03 06:01:03;;;;;;;;;19.00;17.00;;;;;25.86;46.93;101371.09;5075262;27;45539;-61
2021/06/03 06:08:48;;;;;;;;;20.00;20.00;;;;;25.86;47.06;101369.28;5065265;27;45301;-60
2021/06/03 06:11:14;;;;;;;;;18.00;16.00;;;;;25.87;47.21;101370.13;5071297;28;45282;-58
2021/06/03 06:13:39;;;;;;;;;19.33;15.67;;;;;25.87;47.00;101372.78;5070850;28;45406;-56
2021/06/03 06:16:04;;;;;;;;;20.67;20.00;;;;;25.87;47.24;101376.31;5069133;28;66942;-63
2021/06/03 06:18:30;;;;;;;;;20.33;16.33;;;;;25.91;47.13;101378.81;5063724;28;45536;-61
2021/06/03 06:20:56;;;;;;;;;18.33;15.33;;;;;25.92;47.13;101377.88;5081915;28;45356;-61
2021/06/03 06:23:21;;;;;;;;;19.33;19.33;;;;;25.93;47.37;101385.75;5082795;27;45478;-61
2021/06/03 06:25:47;;;;;;;;;18.00;17.33;;;;;25.93;47.06;101390.22;5078413;27;62476;-61
2021/06/03 06:28:15;;;;;;;;;20.00;18.33;;;;;25.93;47.33;101393.72;5062039;27;45395;-68
2021/06/03 06:30:41;;;;;;;;;19.75;16.00;;;;;25.94;47.48;101391.94;5062182;28;45392;-59
2021/06/03 06:33:09;;;;;;;;;15.33;15.00;;;;;25.95;47.61;101396.28;5061994;28;45506;-59
2021/06/03 06:35:34;;;;;;;;;23.33;18.67;;;;;25.97;47.39;101399.72;5065534;28;45380;-59
2021/06/03 06:38:01;;;;;;;;;21.00;21.00;;;;;25.98;47.30;101398.75;5064168;27;45506;-60
2021/06/03 06:40:27;;;;;;;;;19.00;19.00;;;;;25.98;47.90;101402.31;5069390;28;45392;-59
2021/06/03 06:42:55;;;;;;;;;21.67;19.00;;;;;25.99;47.14;101398.69;5066245;28;45557;-59
2021/06/03 06:45:23;;;;;;;;;21.33;20.67;;;;;25.99;47.22;101403.13;5072803;28;46042;-59
2021/06/03 06:47:48;;;;;;;;;20.67;19.00;;;;;26.00;47.32;101407.53;5061281;28;45424;-59
2021/06/03 06:50:14;;;;;;;;;22.33;21.67;;;;;26.01;47.42;101401.25;5073002;28;45288;-59
2021/06/03 06:52:39;;;;;;;;;18.33;18.00;;;;;26.01;46.90;101406.56;5067786;28;45357;-58
2021/06/03 06:55:06;;;;;;;;;21.67;20.67;;;;;26.01;47.35;101410.13;5066657;28;46296;-62
2021/06/03 06:57:32;;;;;;;;;21.33;18.67;;;;;26.02;47.54;101402.97;5078186;28;45450;-58
2021/06/03 06:59:57;;;;;;;;;22.67;20.33;;;;;26.02;47.57;101403.81;5072346;28;45514;-59
2021/06/03 07:02:23;;;;;;;;;22.67;18.67;;;;;26.02;47.46;101402.97;5073926;27;45485;-58
2021/06/03 07:04:48;;;;;;;;;24.67;23.67;;;;;26.03;47.44;101404.69;5080229;28;47238;-59
2021/06/03 07:07:15;;;;;;;;;26.00;25.00;;;;;26.04;47.41;101398.44;5077550;28;45403;-59
2021/06/03 07:09:40;;;;;;;;;30.25;29.00;;;;;26.05;47.40;101401.94;5063988;28;45470;-59
2021/06/03 07:12:06;;;;;;;;;33.00;30.25;;;;;26.05;47.39;101402.81;5062747;27;45309;-61
2021/06/03 07:14:31;;;;;;;;;32.75;30.25;;;;;26.05;47.04;101404.59;5067103;28;45370;-60
2021/06/03 07:16:57;;;;;;;;;39.00;33.00;;;;;26.06;47.24;101412.50;5061050;28;45360;-60
2021/06/03 07:19:22;;;;;;;;;40.25;34.50;;;;;26.06;47.38;101419.59;5062312;28;45536;-59
2021/06/03 07:21:48;;;;;;;;;32.25;30.75;;;;;26.06;47.11;101417.81;5079833;28;46692;-59
2021/06/03 07:24:13;;;;;;;;;38.50;33.50;;;;;26.06;47.26;101412.50;5079810;28;46071;-60
2021/06/03 07:26:38;;;;;;;;;47.50;39.25;;;;;26.07;47.65;101416.88;5081093;27;45463;-59
2021/06/03 07:29:05;;;;;;;;;46.00;35.50;;;;;26.07;47.21;101419.53;5081130;27;45385;-60
2021/06/03 07:31:34;;;;;;;;;48.00;37.50;;;;;26.07;47.27;101414.22;5068822;28;45838;-60
2021/06/03 07:34:04;;;;;;;;;38.25;34.25;;;;;26.08;47.47;101409.75;5064102;28;45377;-60
2021/06/03 07:36:30;;;;;;;;;35.50;32.00;;;;;26.09;47.69;101412.31;5079098;27;45466;-60
2021/06/03 07:39:02;;;;;;;;;39.25;31.50;;;;;26.09;47.13;101414.13;5064242;28;45381;-60
2021/06/03 07:41:28;;;;;;;;;34.00;31.00;;;;;26.09;47.00;101414.13;5077725;28;45622;-59
2021/06/03 07:43:53;;;;;;;;;33.75;31.00;;;;;26.09;47.38;101417.63;5062983;28;45481;-59
2021/06/03 07:46:19;;;;;;;;;33.00;30.50;;;;;26.09;47.32;101420.28;5073480;28;45362;-59
2021/06/03 07:48:44;;;;;;;;;30.00;28.75;;;;;26.09;47.13;101422.94;5065201;28;47533;-62
2021/06/03 07:51:11;;;;;;;;;42.50;36.25;;;;;26.10;47.25;101422.00;5069260;28;45648;-60
2021/06/03 07:53:37;;;;;;;;;47.00;36.75;;;;;26.11;46.99;101426.41;5078019;28;47058;-59
2021/06/03 07:56:02;;;;;;;;;48.25;39.00;;;;;26.12;47.08;101432.59;5077345;27;45310;-60
2021/06/03 07:58:28;;;;;;;;;38.75;33.25;;;;;26.11;47.38;101422.91;5068994;27;45282;-60
2021/06/03 08:00:53;;;;;;;;;34.25;31.75;;;;;26.12;47.21;101433.44;5078367;28;45228;-59
2021/06/03 08:03:19;;;;;;;;;29.75;27.00;;;;;26.14;46.97;101436.03;5068887;28;46205;-56
2021/06/03 08:05:44;;;;;;;;;30.25;28.25;;;;;26.14;46.89;101431.56;5066954;28;45674;-53
2021/06/03 08:08:10;;;;;;;;;56.75;46.00;;;;;26.15;47.14;101438.59;5061675;28;45510;-54
2021/06/03 08:10:39;;;;;;;;;78.50;68.00;;;;;26.15;47.06;101441.25;5060637;28;45938;-55
2021/06/03 08:13:05;;;;;;;;;72.75;55.25;;;;;26.16;47.11;101442.13;5068272;28;46233;-54
2021/06/03 08:15:31;;;;;;;;;61.00;44.75;;;;;26.17;46.85;101450.00;5065306;27;45367;-54
2021/06/03 08:17:58;;;;;;;;;57.25;42.50;;;;;26.17;47.42;101449.13;5061813;28;45319;-55
2021/06/03 08:20:29;;;;;;;;;41.00;33.75;;;;;26.19;46.92;101446.41;5069371;28;45448;-55
2021/06/03 08:22:54;;;;;;;;;32.75;30.75;;;;;26.18;46.96;101448.19;5077346;28;46238;-55
2021/06/03 08:25:20;;;;;;;;;36.25;31.00;;;;;26.19;46.99;101449.06;5066188;28;45715;-55
2021/06/03 08:27:46;;;;;;;;;77.50;61.50;;;;;26.18;47.23;101448.19;5064809;28;45542;-55
2021/06/03 08:30:13;;;;;;;;;93.75;76.00;;;;;26.20;46.79;101448.13;5069810;27;45355;-56
2021/06/03 08:32:40;;;;;;;;;76.75;57.50;;;;;26.20;46.90;101448.13;5055482;28;47202;-63
2021/06/03 08:35:07;;;;;;;;;56.75;45.25;;;;;26.20;47.01;101450.78;5068353;28;45399;-59
2021/06/03 08:37:32;;;;;;;;;49.00;38.50;;;;;26.20;46.75;101451.63;5065440;28;45520;-61
2021/06/03 08:39:58;;;;;;;;;50.50;41.25;;;;;26.20;46.84;101454.28;5079405;28;44885;-58
2021/06/03 08:42:23;;;;;;;;;59.50;46.00;;;;;26.20;47.09;101448.97;5079031;28;46495;-57
2021/06/03 08:44:51;;;;;;;;;68.75;51.25;;;;;26.21;46.81;101450.69;5061264;28;45604;-58
2021/06/03 08:47:17;;;;;;;;;57.50;44.75;;;;;26.22;47.08;101446.25;5066345;27;45397;-58
2021/06/03 08:49:43;;;;;;;;;47.00;38.25;;;;;26.23;47.26;101447.97;5065415;28;45305;-58
2021/06/03 08:52:08;;;;;;;;;59.00;44.25;;;;;26.23;47.18;101450.63;5064053;28;45417;-62
2021/06/03 08:54:35;;;;;;;;;53.25;42.50;;;;;26.23;47.24;101451.47;5083539;28;45326;-64
2021/06/03 08:57:01;;;;;;;;;55.00;44.00;;;;;26.23;47.46;101447.97;5080201;28;45512;-61
2021/06/03 08:59:29;;;;;;;;;63.50;47.00;;;;;26.24;47.40;101444.34;5091821;28;44824;-63
2021/06/03 09:01:54;;;;;;;;;51.75;41.50;;;;;26.25;47.28;101448.69;5079114;28;45571;-61
2021/06/03 09:04:20;;;;;;;;;44.25;35.75;;;;;26.24;47.30;101445.19;5082896;27;45373;-61
2021/06/03 09:06:45;;;;;;;;;68.25;52.00;;;;;26.25;46.78;101446.03;5072400;28;45273;-61
2021/06/03 09:09:14;;;;;;;;;138.33;117.00;;;;;26.24;47.10;101442.53;5074807;28;45618;-61
2021/06/03 09:11:40;;;;;;;;;82.00;69.50;;;;;26.25;46.97;101443.38;5069897;28;45410;-60
2021/06/03 09:14:15;;;;;;;;;74.50;57.00;;;;;26.25;46.59;101446.91;5075559;28;46220;-60
2021/06/03 09:16:50;;;;;;;;;61.50;46.00;;;;;26.26;47.02;101447.75;5064733;28;45281;-60
2021/06/03 09:19:15;;;;;;;;;55.00;44.00;;;;;26.26;46.75;101450.41;5072118;28;45354;-60
2021/06/03 09:21:50;;;;;;;;;54.50;43.25;;;;;26.27;46.81;101449.47;5076510;27;60705;-60
2021/06/03 09:24:17;;;;;;;;;76.75;58.00;;;;;26.26;47.07;101440.66;5075149;28;45457;-60
2021/06/03 09:26:46;;;;;;;;;61.00;47.25;;;;;26.27;46.74;101441.50;5063322;28;45371;-60
2021/06/03 09:29:31;;;;;;;;;56.50;43.50;;;;;26.26;46.90;101443.31;5062937;28;45335;-60
2021/06/03 09:32:08;;;;;;;;;70.50;53.50;;;;;26.27;46.74;101444.16;5066192;28;46064;-60
2021/06/03 09:34:34;;;;;;;;;55.75;45.00;;;;;26.27;46.42;101438.84;5064998;28;45258;-60
2021/06/03 09:37:02;;;;;;;;;62.75;46.25;;;;;26.27;46.88;101437.03;5065484;28;45464;-60
2021/06/03 09:39:34;;;;;;;;;62.00;45.25;;;;;26.27;46.43;101434.38;5076572;28;45450;-61
2021/06/03 09:42:12;;;;;;;;;50.25;40.50;;;;;26.27;46.76;101442.38;5072628;27;46143;-61
2021/06/03 09:44:55;;;;;;;;;51.75;41.25;;;;;26.28;46.68;101437.88;5067750;27;45779;-61
2021/06/03 09:47:35;;;;;;;;;54.00;44.00;;;;;26.27;46.68;101428.19;5073834;28;45544;-61
2021/06/03 09:50:00;;;;;;;;;47.50;39.00;;;;;26.26;46.87;101435.31;5080463;28;45538;-61
2021/06/03 09:52:32;;;;;;;;;83.50;68.25;;;;;26.27;46.61;101441.50;5073481;28;46139;-61
2021/06/03 09:55:09;;;;;;;;;61.75;46.75;;;;;26.28;46.71;101436.09;5069021;28;45463;-61
2021/06/03 09:57:41;;;;;;;;;54.75;44.00;;;;;26.28;46.46;101436.09;5069029;28;45463;-59
2021/06/03 10:00:10;;;;;;;;;51.75;42.00;;;;;26.28;46.63;101438.75;5070071;28;45535;-59
2021/06/03 10:02:36;;;;;;;;;48.00;38.25;;;;;26.28;46.84;101440.56;5063546;28;46275;-58
2021/06/03 10:05:10;;;;;;;;;48.00;39.75;;;;;26.28;46.72;101437.88;5066468;28;45515;-60
2021/06/03 10:07:36;;;;;;;;;56.50;45.50;;;;;26.28;46.61;101441.44;5069671;28;45444;-59
2021/06/03 10:10:04;;;;;;;;;71.25;53.50;;;;;26.28;46.50;101437.88;5065046;27;45491;-61
2021/06/03 10:12:34;;;;;;;;;56.75;44.75;;;;;26.28;46.57;101430.78;5061992;28;45306;-60
2021/06/03 10:15:05;;;;;;;;;48.00;40.75;;;;;26.28;46.78;101438.75;5066687;28;46282;-60
2021/06/03 10:17:30;;;;;;;;;50.75;42.25;;;;;26.29;46.97;101436.94;5062280;28;45422;-60
2021/06/03 10:20:00;;;;;;;;;35.75;32.75;;;;;26.30;46.80;101436.00;5067412;28;45742;-60
2021/06/03 10:22:31;;;;;;;;;50.25;41.00;;;;;26.30;46.55;101431.56;5068000;27;46493;-60
2021/06/03 10:25:37;;;;;;;;;47.50;39.75;;;;;26.31;46.92;101427.94;5067750;28;46596;-60
2021/06/03 10:28:06;;;;;;;;;50.25;37.25;;;;;26.32;46.71;101416.34;5065724;28;46453;-60
2021/06/03 10:30:35;;;;;;;;;51.00;39.50;;;;;26.33;46.48;101419.88;5068014;28;45448;-61
2021/06/03 10:33:05;;;;;;;;;47.00;36.25;;;;;26.33;46.63;101423.38;5073069;27;46888;-60
2021/06/03 10:35:34;;;;;;;;;39.75;32.75;;;;;26.33;46.21;101427.84;5067373;28;46799;-60
2021/06/03 10:38:00;;;;;;;;;341.80;279.60;;;;;26.34;46.46;101424.25;5066731;28;46772;-58
2021/06/03 10:40:28;;;;;;;;;150.00;123.67;;;;;26.35;46.20;101430.41;5049690;28;45815;-60
2021/06/03 10:42:55;;;;;;;;;88.00;75.25;;;;;26.35;46.53;101425.97;5049882;28;45960;-62
2021/06/03 10:45:22;;;;;;;;;72.75;53.00;;;;;26.37;46.95;101424.06;5073527;28;45824;-59
2021/06/03 10:47:48;;;;;;;;;68.25;51.00;;;;;26.37;46.57;101424.06;5048980;28;46726;-64
2021/06/03 10:50:26;;;;;;;;;50.25;40.00;;;;;26.39;46.51;101426.63;5068294;27;45436;-60
2021/06/03 10:52:52;;;;;;;;;43.25;34.00;;;;;26.40;46.79;101429.19;5084520;27;48072;-60
2021/06/03 10:55:32;;;;;;;;;42.25;35.50;;;;;26.42;46.50;101426.47;5066802;28;45521;-60
2021/06/03 10:58:00;;;;;;;;;44.50;33.00;;;;;26.41;46.38;101425.59;5064006;28;45590;-61
2021/06/03 11:00:28;;;;;;;;;31.50;29.75;;;;;26.42;46.01;101427.31;5070518;27;45538;-60
2021/06/03 11:03:17;;;;;;;;;44.50;36.25;;;;;26.42;46.35;101421.97;5066644;28;46357;-59
2021/06/03 11:05:45;;;;;;;;;41.25;34.50;;;;;26.43;46.33;101422.84;5065739;27;45664;-59
2021/06/03 11:08:26;;;;;;;;;39.75;34.25;;;;;26.44;46.71;101421.91;5065484;28;45687;-61
2021/06/03 11:10:52;;;;;;;;;36.50;32.50;;;;;26.44;45.99;101413.94;5066785;28;45628;-59
2021/06/03 11:13:22;;;;;;;;;29.25;25.00;;;;;26.45;46.42;101415.66;5066588;28;46500;-58
2021/06/03 11:16:06;;;;;;;;;31.75;28.75;;;;;26.47;46.57;101416.41;5067433;28;45426;-58
2021/06/03 11:18:49;;;;;;;;;32.75;28.50;;;;;26.48;46.60;101416.31;5068130;28;45368;-59
2021/06/03 11:24:00;;;;;;;;;65.25;51.00;;;;;26.50;46.31;101418.03;5067105;28;45638;-60
2021/06/03 11:26:40;;;;;;;;;65.00;50.25;;;;;26.52;46.30;101418.81;5066542;27;45541;-60